createdAt,value
2023-05-09T00:00:02.774Z,54.03
2023-05-09T00:02:29.645Z,50.75
2023-05-09T00:04:56.722Z,45.97
2023-05-09T00:07:23.076Z,53.65
2023-05-09T00:09:49.515Z,58.63
2023-05-09T00:12:15.944Z,61.20
2023-05-09T00:14:45.333Z,53.53
2023-05-09T00:17:14.386Z,58.05
2023-05-09T00:19:40.762Z,52.50
2023-05-09T00:22:09.026Z,51.92
2023-05-09T00:24:35.572Z,49.25
2023-05-09T00:27:02.170Z,54.08
2023-05-09T00:29:28.540Z,54.05
2023-05-09T00:31:55.035Z,44.88
2023-05-09T00:34:21.533Z,51.08
2023-05-09T00:36:47.978Z,48.35
2023-05-09T00:39:14.330Z,47.80
2023-05-09T00:41:40.773Z,48.90
2023-05-09T00:44:07.649Z,49.55
2023-05-09T00:46:34.140Z,47.00
2023-05-09T00:49:00.573Z,38.70
2023-05-09T00:51:28.437Z,48.85
2023-05-09T00:53:54.811Z,48.45
2023-05-09T00:56:21.932Z,41.97
2023-05-09T00:58:48.466Z,47.10
2023-05-09T01:01:15.008Z,51.42
2023-05-09T01:03:42.013Z,49.50
2023-05-09T01:06:20.002Z,46.97
2023-05-09T01:09:02.641Z,48.85
2023-05-09T01:11:38.978Z,52.25
2023-05-09T01:14:24.635Z,48.75
2023-05-09T01:16:58.717Z,51.60
2023-05-09T01:19:43.753Z,49.95
2023-05-09T01:22:13.901Z,51.95
2023-05-09T01:25:19.509Z,55.60
2023-05-09T01:28:13.364Z,54.63
2023-05-09T01:30:43.330Z,50.42
2023-05-09T01:33:13.362Z,53.42
2023-05-09T01:35:44.380Z,56.22
2023-05-09T01:38:17.553Z,56.05
2023-05-09T01:40:47.410Z,56.10
2023-05-09T01:43:17.555Z,58.53
2023-05-09T01:45:45.186Z,53.78
2023-05-09T01:48:13.246Z,53.13
2023-05-09T01:50:40.874Z,49.42
2023-05-09T01:53:08.700Z,56.13
2023-05-09T01:55:37.773Z,58.25
2023-05-09T01:58:05.875Z,58.25
2023-05-09T02:00:34.175Z,52.75
2023-05-09T02:03:02.988Z,53.03
2023-05-09T02:05:30.962Z,57.05
2023-05-09T02:07:58.617Z,59.85
2023-05-09T02:10:27.490Z,56.20
2023-05-09T02:12:55.271Z,57.30
2023-05-09T02:15:22.965Z,57.25
2023-05-09T02:17:49.493Z,57.67
2023-05-09T02:20:15.956Z,57.15
2023-05-09T02:22:43.844Z,62.63
2023-05-09T02:25:15.087Z,60.88
2023-05-09T02:27:45.275Z,59.53
2023-05-09T02:30:17.164Z,59.13
2023-05-09T02:32:47.099Z,56.85
2023-05-09T02:35:16.439Z,50.58
2023-05-09T02:37:44.598Z,52.30
2023-05-09T02:40:11.802Z,55.95
2023-05-09T02:42:38.134Z,56.45
2023-05-09T02:45:04.926Z,53.88
2023-05-09T02:47:31.836Z,49.47
2023-05-09T02:49:58.285Z,48.72
2023-05-09T02:52:24.777Z,56.75
2023-05-09T02:54:51.142Z,56.78
2023-05-09T02:57:17.690Z,55.78
2023-05-09T02:59:44.170Z,54.03
2023-05-09T03:02:10.661Z,56.40
2023-05-09T03:04:37.474Z,56.03
2023-05-09T03:07:04.349Z,53.08
2023-05-09T03:09:30.872Z,56.95
2023-05-09T03:11:57.386Z,53.88
2023-05-09T03:14:23.821Z,57.20
2023-05-09T03:16:50.255Z,54.88
2023-05-09T03:19:16.989Z,58.28
2023-05-09T03:21:43.324Z,59.78
2023-05-09T03:24:10.546Z,59.75
2023-05-09T03:26:36.910Z,53.08
2023-05-09T03:29:03.844Z,55.53
2023-05-09T03:31:32.365Z,57.88
2023-05-09T03:33:58.829Z,61.85
2023-05-09T03:36:25.324Z,62.55
2023-05-09T03:38:51.630Z,60.15
2023-05-09T03:41:18.803Z,53.92
2023-05-09T03:43:45.619Z,57.55
2023-05-09T03:46:11.981Z,57.63
2023-05-09T03:48:38.450Z,51.13
2023-05-09T03:51:04.842Z,57.45
2023-05-09T03:53:31.424Z,52.58
2023-05-09T03:55:57.806Z,53.25
2023-05-09T03:58:24.201Z,53.03
2023-05-09T04:00:50.640Z,48.95
2023-05-09T04:03:17.012Z,49.10
2023-05-09T04:05:43.468Z,53.53
2023-05-09T04:08:09.917Z,44.03
2023-05-09T04:10:36.239Z,47.25
2023-05-09T04:13:02.744Z,49.13
2023-05-09T04:15:29.122Z,46.35
2023-05-09T04:17:55.674Z,41.03
2023-05-09T04:20:22.159Z,43.90
2023-05-09T04:22:48.556Z,45.97
2023-05-09T04:25:15.982Z,43.65
2023-05-09T04:27:42.645Z,43.63
2023-05-09T04:30:09.522Z,41.63
2023-05-09T04:32:36.743Z,43.75
2023-05-09T04:35:03.985Z,39.20
2023-05-09T04:37:31.465Z,39.70
2023-05-09T04:39:57.959Z,38.05
2023-05-09T04:42:24.359Z,41.28
2023-05-09T04:44:51.746Z,40.10
2023-05-09T04:47:18.289Z,44.95
2023-05-09T04:49:44.762Z,41.85
2023-05-09T04:52:11.338Z,42.65
2023-05-09T04:54:37.667Z,38.70
2023-05-09T04:57:17.309Z,41.20
2023-05-09T04:59:44.754Z,40.78
2023-05-09T05:02:11.163Z,40.30
2023-05-09T05:04:37.607Z,37.20
2023-05-09T05:07:05.043Z,38.25
2023-05-09T05:09:31.430Z,37.78
2023-05-09T05:12:01.125Z,38.90
2023-05-09T05:14:28.993Z,35.92
2023-05-09T05:16:55.494Z,35.25
2023-05-09T05:19:21.900Z,35.58
2023-05-09T05:21:48.241Z,35.75
2023-05-09T05:24:14.811Z,33.53
2023-05-09T05:26:41.210Z,32.80
2023-05-09T05:29:07.689Z,32.92
2023-05-09T05:31:34.157Z,31.23
2023-05-09T05:34:00.662Z,30.52
2023-05-09T05:36:27.225Z,31.65
2023-05-09T05:38:53.613Z,29.33
2023-05-09T05:41:20.017Z,27.42
2023-05-09T05:43:46.519Z,29.55
2023-05-09T05:46:12.972Z,29.60
2023-05-09T05:48:39.479Z,29.55
2023-05-09T05:51:06.461Z,31.88
2023-05-09T05:53:32.997Z,25.98
2023-05-09T05:55:59.376Z,28.67
2023-05-09T05:58:26.389Z,27.77
2023-05-09T06:00:52.982Z,26.23
2023-05-09T06:03:19.401Z,26.42
2023-05-09T06:05:46.884Z,29.38
2023-05-09T06:08:13.433Z,27.30
2023-05-09T06:10:39.878Z,26.55
2023-05-09T06:13:06.286Z,24.85
2023-05-09T06:15:32.723Z,23.38
2023-05-09T06:17:59.293Z,28.85
2023-05-09T06:20:25.745Z,28.08
2023-05-09T06:22:52.227Z,26.50
2023-05-09T06:25:18.601Z,28.80
2023-05-09T06:27:44.995Z,24.48
2023-05-09T06:30:24.886Z,24.67
2023-05-09T06:32:53.488Z,25.13
2023-05-09T06:35:20.074Z,25.75
2023-05-09T06:37:48.388Z,28.02
2023-05-09T06:40:16.021Z,29.30
2023-05-09T06:42:42.454Z,28.38
2023-05-09T06:45:09.210Z,24.90
2023-05-09T06:47:35.747Z,29.88
2023-05-09T06:50:02.304Z,26.15
2023-05-09T06:52:28.675Z,30.30
2023-05-09T06:54:55.248Z,29.15
2023-05-09T06:57:21.699Z,29.48
2023-05-09T06:59:48.358Z,30.38
2023-05-09T07:02:14.762Z,28.80
2023-05-09T07:04:41.136Z,28.13
2023-05-09T07:07:07.683Z,32.45
2023-05-09T07:09:34.159Z,27.65
2023-05-09T07:12:01.491Z,28.42
2023-05-09T07:14:27.932Z,32.30
2023-05-09T07:17:02.196Z,24.33
2023-05-09T07:19:36.608Z,26.58
2023-05-09T07:22:02.966Z,27.10
2023-05-09T07:24:29.513Z,26.83
2023-05-09T07:26:55.892Z,26.85
2023-05-09T07:29:22.261Z,27.90
2023-05-09T07:31:48.688Z,26.60
2023-05-09T07:34:16.650Z,28.10
2023-05-09T07:36:43.141Z,26.65
2023-05-09T07:39:09.553Z,26.83
2023-05-09T07:41:35.911Z,24.95
2023-05-09T07:44:02.289Z,24.85
2023-05-09T07:46:28.659Z,28.85
2023-05-09T07:48:55.073Z,27.00
2023-05-09T07:51:21.640Z,27.88
2023-05-09T07:53:48.038Z,24.05
2023-05-09T07:56:14.466Z,25.25
2023-05-09T07:58:40.855Z,23.88
2023-05-09T08:01:07.225Z,28.77
2023-05-09T08:03:33.668Z,25.63
2023-05-09T08:06:00.235Z,25.63
2023-05-09T08:08:28.293Z,24.98
2023-05-09T08:10:55.618Z,25.27
2023-05-09T08:13:22.673Z,23.33
2023-05-09T08:15:49.312Z,23.60
2023-05-09T08:18:15.885Z,23.52
2023-05-09T08:20:42.296Z,26.10
2023-05-09T08:23:09.182Z,24.00
2023-05-09T08:25:35.618Z,22.23
2023-05-09T08:28:02.009Z,23.65
2023-05-09T08:30:29.519Z,23.70
2023-05-09T08:32:58.835Z,20.33
2023-05-09T08:35:25.320Z,21.35
2023-05-09T08:37:51.736Z,23.90
2023-05-09T08:40:18.320Z,24.55
2023-05-09T08:42:46.107Z,22.30
2023-05-09T08:45:17.188Z,21.45
2023-05-09T08:47:44.456Z,19.90
2023-05-09T08:50:11.748Z,19.73
2023-05-09T08:52:38.594Z,18.45
2023-05-09T08:55:05.743Z,20.48
2023-05-09T08:57:34.911Z,15.82
2023-05-09T09:00:01.443Z,17.77
2023-05-09T09:02:28.046Z,17.48
2023-05-09T09:04:55.172Z,13.23
2023-05-09T09:07:23.205Z,14.27
2023-05-09T09:09:50.399Z,17.40
2023-05-09T09:12:18.107Z,16.35
2023-05-09T09:14:50.145Z,16.60
2023-05-09T09:17:19.438Z,15.93
2023-05-09T09:19:49.469Z,14.93
2023-05-09T09:22:19.139Z,16.67
2023-05-09T09:24:45.891Z,14.85
2023-05-09T09:27:12.444Z,16.13
2023-05-09T09:29:38.963Z,13.35
2023-05-09T09:32:06.865Z,12.90
2023-05-09T09:34:33.376Z,14.38
2023-05-09T09:36:59.784Z,14.55
2023-05-09T09:39:26.106Z,12.63
2023-05-09T09:41:53.933Z,12.27
2023-05-09T09:44:22.049Z,14.63
2023-05-09T09:46:50.252Z,16.23
2023-05-09T09:49:19.687Z,14.82
2023-05-09T09:51:53.496Z,14.13
2023-05-09T09:54:20.421Z,15.82
2023-05-09T09:56:48.695Z,12.88
2023-05-09T09:59:17.529Z,14.60
2023-05-09T10:02:03.031Z,12.50
2023-05-09T10:04:43.183Z,13.50
2023-05-09T10:07:12.826Z,13.93
2023-05-09T10:09:41.266Z,14.02
2023-05-09T10:12:08.614Z,13.52
2023-05-09T10:14:37.096Z,14.05
2023-05-09T10:17:05.534Z,10.88
2023-05-09T10:19:33.236Z,13.95
2023-05-09T10:24:45.976Z,13.68
2023-05-09T10:27:13.285Z,17.67
2023-05-09T10:29:51.445Z,14.13
2023-05-09T10:32:23.064Z,14.30
2023-05-09T10:34:53.342Z,15.10
2023-05-09T10:37:21.445Z,15.02
2023-05-09T10:39:53.070Z,13.98
2023-05-09T10:42:20.042Z,13.15
2023-05-09T10:44:46.996Z,14.32
2023-05-09T10:47:14.097Z,12.73
2023-05-09T10:49:40.934Z,15.15
2023-05-09T10:52:07.393Z,16.02
2023-05-09T10:54:36.321Z,14.00
2023-05-09T10:57:03.533Z,17.73
2023-05-09T10:59:41.931Z,14.05
2023-05-09T11:02:18.967Z,16.48
2023-05-09T11:04:45.674Z,12.18
2023-05-09T11:07:27.577Z,13.70
2023-05-09T11:10:08.482Z,13.38
2023-05-09T11:15:06.309Z,13.50
2023-05-09T11:17:32.751Z,15.13
2023-05-09T11:20:03.346Z,11.43
2023-05-09T11:22:32.835Z,12.63
2023-05-09T11:25:08.225Z,12.20
2023-05-09T11:27:44.125Z,13.20
2023-05-09T11:30:14.212Z,12.10
2023-05-09T11:32:43.484Z,13.63
2023-05-09T11:35:12.478Z,12.73
2023-05-09T11:38:02.625Z,13.20
2023-05-09T11:40:30.150Z,14.00
2023-05-09T11:45:27.921Z,12.65
2023-05-09T11:47:54.591Z,18.95
2023-05-09T11:50:21.641Z,14.23
2023-05-09T11:52:48.928Z,13.85
2023-05-09T11:55:25.116Z,12.98
2023-05-09T11:57:52.936Z,14.98
2023-05-09T12:00:21.582Z,14.10
2023-05-09T12:02:49.153Z,14.55
2023-05-09T12:05:17.616Z,14.52
2023-05-09T12:07:45.415Z,14.07
2023-05-09T12:10:14.771Z,16.15
2023-05-09T12:12:49.833Z,15.80
2023-05-09T12:15:17.566Z,15.27
2023-05-09T12:17:45.403Z,11.50
2023-05-09T12:22:39.022Z,14.20
2023-05-09T12:25:08.209Z,14.98
2023-05-09T12:27:39.894Z,11.90
2023-05-09T12:30:10.998Z,13.65
2023-05-09T12:32:40.011Z,14.38
2023-05-09T12:35:08.557Z,13.80
2023-05-09T12:37:35.260Z,19.55
2023-05-09T12:40:19.911Z,15.23
2023-05-09T12:42:46.974Z,10.27
2023-05-09T12:45:13.994Z,12.65
2023-05-09T12:47:42.031Z,12.20
2023-05-09T12:50:11.565Z,13.02
2023-05-09T12:52:58.554Z,13.65
2023-05-09T12:55:29.166Z,12.95
2023-05-09T12:58:02.654Z,14.15
2023-05-09T13:00:44.581Z,10.65
2023-05-09T13:03:29.543Z,12.48
2023-05-09T13:06:03.667Z,12.95
2023-05-09T13:08:31.252Z,12.75
2023-05-09T13:11:11.951Z,11.35
2023-05-09T13:13:42.303Z,11.27
2023-05-09T13:16:10.696Z,11.65
2023-05-09T13:18:38.810Z,11.60
2023-05-09T13:21:05.259Z,10.43
2023-05-09T13:23:31.666Z,11.52
2023-05-09T13:25:58.198Z,10.95
2023-05-09T13:28:24.573Z,12.35
2023-05-09T13:30:51.194Z,10.93
2023-05-09T13:35:51.209Z,10.73
2023-05-09T13:38:17.624Z,13.02
2023-05-09T13:40:44.107Z,10.77
2023-05-09T13:43:10.475Z,11.25
2023-05-09T13:45:37.002Z,11.48
2023-05-09T13:48:03.694Z,11.57
2023-05-09T13:50:30.126Z,9.57
2023-05-09T13:52:56.470Z,10.25
2023-05-09T13:55:22.916Z,8.90
2023-05-09T13:57:49.316Z,10.18
2023-05-09T14:00:16.154Z,8.10
2023-05-09T14:02:42.627Z,10.10
2023-05-09T14:05:09.303Z,9.90
2023-05-09T14:07:35.887Z,8.70
2023-05-09T14:12:31.934Z,8.32
2023-05-09T14:14:58.273Z,9.68
2023-05-09T14:17:24.670Z,10.05
2023-05-09T14:19:51.110Z,10.07
2023-05-09T14:22:17.658Z,11.05
2023-05-09T14:24:44.655Z,9.70
2023-05-09T14:27:11.132Z,9.55
2023-05-09T14:29:41.045Z,9.07
2023-05-09T14:32:08.080Z,9.48
2023-05-09T14:34:34.530Z,9.23
2023-05-09T14:37:00.849Z,8.98
2023-05-09T14:39:27.236Z,11.85
2023-05-09T14:41:53.620Z,8.23
2023-05-09T14:44:20.290Z,8.60
2023-05-09T14:46:46.729Z,11.18
2023-05-09T14:49:13.195Z,8.18
2023-05-09T14:51:39.585Z,8.23
2023-05-09T14:54:06.874Z,9.15
2023-05-09T14:56:33.593Z,7.45
2023-05-09T14:59:00.022Z,7.88
2023-05-09T15:01:26.406Z,8.15
2023-05-09T15:03:53.078Z,7.75
2023-05-09T15:06:19.560Z,8.32
2023-05-09T15:08:46.477Z,7.70
2023-05-09T15:11:12.916Z,7.18
2023-05-09T15:13:39.311Z,9.32
2023-05-09T15:16:05.836Z,8.93
2023-05-09T15:18:33.472Z,10.02
2023-05-09T15:21:00.495Z,10.38
2023-05-09T15:23:26.976Z,8.50
2023-05-09T15:25:53.574Z,8.77
2023-05-09T15:28:20.070Z,9.00
2023-05-09T15:30:46.675Z,9.98
2023-05-09T15:33:13.253Z,9.75
2023-05-09T15:35:40.041Z,10.35
2023-05-09T15:38:07.750Z,8.82
2023-05-09T15:40:34.227Z,8.35
2023-05-09T15:43:08.024Z,8.25
2023-05-09T15:48:01.226Z,8.32
2023-05-09T15:50:28.274Z,7.55
2023-05-09T15:52:54.677Z,7.63
2023-05-09T15:55:21.286Z,12.73
2023-05-09T15:57:48.195Z,7.72
2023-05-09T16:00:16.194Z,7.60
2023-05-09T16:02:44.226Z,9.25
2023-05-09T16:05:11.113Z,8.88
2023-05-09T16:07:37.647Z,8.13
2023-05-09T16:10:04.326Z,7.80
2023-05-09T16:12:32.760Z,8.00
2023-05-09T16:14:59.348Z,7.95
2023-05-09T16:17:25.917Z,8.80
2023-05-09T16:19:52.373Z,6.50
2023-05-09T16:22:19.216Z,5.70
2023-05-09T16:24:46.408Z,5.80
2023-05-09T16:27:14.525Z,6.93
2023-05-09T16:29:41.652Z,4.80
2023-05-09T16:32:08.917Z,6.55
2023-05-09T16:34:35.905Z,5.05
2023-05-09T16:37:03.036Z,5.43
2023-05-09T16:39:30.552Z,6.53
2023-05-09T16:44:25.077Z,5.32
2023-05-09T16:46:51.405Z,6.28
2023-05-09T16:49:17.981Z,8.35
2023-05-09T16:51:44.426Z,12.05
2023-05-09T16:54:10.889Z,6.07
2023-05-09T16:56:37.480Z,10.23
2023-05-09T16:59:04.081Z,7.88
2023-05-09T17:01:30.755Z,9.25
2023-05-09T17:03:57.351Z,8.80
2023-05-09T17:06:23.793Z,8.43
2023-05-09T17:08:50.134Z,7.70
2023-05-09T17:11:16.540Z,8.13
2023-05-09T17:13:43.955Z,10.48
2023-05-09T17:16:10.603Z,8.30
2023-05-09T17:18:38.273Z,8.15
2023-05-09T17:21:05.235Z,11.00
2023-05-09T17:23:31.777Z,9.35
2023-05-09T17:25:58.318Z,8.93
2023-05-09T17:28:24.696Z,8.65
2023-05-09T17:30:51.486Z,9.32
2023-05-09T17:33:17.963Z,8.68
2023-05-09T17:35:44.385Z,8.85
2023-05-09T17:38:10.849Z,8.90
2023-05-09T17:40:38.042Z,9.57
2023-05-09T17:43:04.500Z,8.77
2023-05-09T17:45:30.961Z,8.70
2023-05-09T17:47:57.726Z,8.50
2023-05-09T17:50:24.330Z,10.80
2023-05-09T17:52:50.885Z,9.55
2023-05-09T17:55:17.696Z,9.38
2023-05-09T17:57:44.236Z,11.15
2023-05-09T18:00:11.445Z,10.35
2023-05-09T18:02:37.940Z,10.23
2023-05-09T18:05:05.700Z,11.30
2023-05-09T18:07:33.652Z,10.23
2023-05-09T18:10:00.176Z,11.02
2023-05-09T18:12:28.878Z,10.40
2023-05-09T18:14:55.501Z,10.57
2023-05-09T18:17:22.056Z,10.30
2023-05-09T18:19:48.504Z,11.38
2023-05-09T18:22:15.557Z,16.73
2023-05-09T18:24:42.002Z,28.38
2023-05-09T18:27:08.553Z,31.23
2023-05-09T18:29:34.901Z,23.60
2023-05-09T18:32:01.895Z,18.55
2023-05-09T18:34:28.804Z,13.80
2023-05-09T18:36:55.750Z,14.07
2023-05-09T18:39:22.172Z,11.43
2023-05-09T18:41:48.580Z,9.82
2023-05-09T18:44:15.146Z,11.15
2023-05-09T18:46:41.584Z,9.57
2023-05-09T18:49:09.559Z,10.45
2023-05-09T18:51:36.446Z,9.77
2023-05-09T18:54:02.965Z,9.32
2023-05-09T18:56:29.379Z,9.98
2023-05-09T18:58:55.790Z,8.77
2023-05-09T19:01:24.289Z,8.73
2023-05-09T19:03:54.248Z,9.02
2023-05-09T19:06:21.632Z,8.25
2023-05-09T19:08:48.972Z,11.02
2023-05-09T19:11:16.077Z,8.07
2023-05-09T19:13:48.568Z,9.68
2023-05-09T19:16:16.539Z,8.85
2023-05-09T19:18:43.025Z,9.48
2023-05-09T19:21:09.453Z,9.52
2023-05-09T19:23:35.837Z,9.10
2023-05-09T19:26:03.389Z,10.27
2023-05-09T19:30:57.283Z,10.25
2023-05-09T19:35:50.249Z,8.77
2023-05-09T19:38:16.651Z,9.68
2023-05-09T19:40:42.985Z,9.60
2023-05-09T19:43:09.498Z,8.63
2023-05-09T19:45:35.810Z,9.70
2023-05-09T19:48:02.498Z,8.73
2023-05-09T19:50:30.157Z,11.40
2023-05-09T19:52:58.233Z,9.15
2023-05-09T19:55:24.630Z,9.55
2023-05-09T19:57:51.054Z,8.18
2023-05-09T20:00:18.112Z,8.60
2023-05-09T20:02:44.849Z,10.02
2023-05-09T20:05:11.360Z,8.60
2023-05-09T20:07:37.782Z,9.40
2023-05-09T20:10:04.604Z,8.63
2023-05-09T20:12:31.263Z,8.13
2023-05-09T20:14:57.734Z,8.63
2023-05-09T20:17:24.235Z,8.38
2023-05-09T20:19:51.137Z,9.13
2023-05-09T20:22:17.805Z,9.10
2023-05-09T20:24:44.248Z,8.80
2023-05-09T20:27:10.952Z,9.70
2023-05-09T20:29:37.359Z,9.82
2023-05-09T20:32:03.825Z,11.20
2023-05-09T20:34:30.548Z,8.45
2023-05-09T20:36:57.005Z,8.75
2023-05-09T20:39:24.462Z,7.30
2023-05-09T20:41:52.070Z,8.38
2023-05-09T20:46:45.927Z,8.57
2023-05-09T20:49:12.623Z,9.90
2023-05-09T20:51:40.244Z,9.35
2023-05-09T20:54:07.046Z,9.20
2023-05-09T20:56:35.257Z,10.70
2023-05-09T20:59:03.979Z,9.15
2023-05-09T21:01:37.185Z,10.02
2023-05-09T21:04:05.481Z,11.73
2023-05-09T21:06:32.976Z,9.73
2023-05-09T21:08:59.392Z,11.15
2023-05-09T21:11:25.897Z,12.48
2023-05-09T21:13:52.376Z,12.20
2023-05-09T21:16:18.837Z,11.85
2023-05-09T21:18:45.366Z,11.20
2023-05-09T21:21:11.817Z,11.10
2023-05-09T21:23:38.388Z,13.75
2023-05-09T21:26:04.863Z,11.15
2023-05-09T21:28:31.405Z,15.05
2023-05-09T21:30:59.882Z,13.05
2023-05-09T21:33:26.312Z,12.63
2023-05-09T21:35:52.804Z,12.07
2023-05-09T21:38:19.218Z,13.10
2023-05-09T21:40:45.758Z,11.88
2023-05-09T21:43:12.193Z,13.57
2023-05-09T21:45:38.595Z,13.00
2023-05-09T21:48:05.476Z,13.93
2023-05-09T21:50:31.965Z,12.15
2023-05-09T21:52:58.430Z,13.38
2023-05-09T21:55:25.063Z,16.55
2023-05-09T21:57:51.789Z,13.73
2023-05-09T22:00:18.886Z,13.75
2023-05-09T22:02:45.551Z,14.48
2023-05-09T22:05:12.512Z,14.65
2023-05-09T22:07:38.983Z,16.55
2023-05-09T22:10:06.100Z,15.32
2023-05-09T22:12:33.375Z,16.27
2023-05-09T22:14:59.994Z,13.07
2023-05-09T22:17:26.694Z,17.05
2023-05-09T22:19:53.076Z,15.75
2023-05-09T22:22:19.555Z,16.65
2023-05-09T22:24:45.914Z,18.80
2023-05-09T22:27:12.394Z,14.57
2023-05-09T22:29:38.831Z,16.73
2023-05-09T22:32:07.666Z,19.50
2023-05-09T22:34:34.524Z,18.15
2023-05-09T22:37:00.842Z,18.38
2023-05-09T22:39:27.216Z,22.40
2023-05-09T22:41:53.573Z,21.25
2023-05-09T22:44:19.903Z,24.98
2023-05-09T22:46:46.268Z,19.65
2023-05-09T22:49:12.855Z,21.75
2023-05-09T22:51:39.299Z,21.05
2023-05-09T22:54:05.863Z,25.02
2023-05-09T22:56:32.252Z,23.63
2023-05-09T22:58:58.907Z,29.75
2023-05-09T23:01:27.240Z,26.15
2023-05-09T23:03:53.672Z,31.38
2023-05-09T23:06:20.003Z,25.33
2023-05-09T23:08:46.842Z,28.88
2023-05-09T23:11:13.239Z,27.75
2023-05-09T23:13:39.589Z,25.95
2023-05-09T23:16:06.484Z,26.25
2023-05-09T23:18:33.172Z,28.60
2023-05-09T23:20:59.806Z,29.33
2023-05-09T23:23:26.242Z,28.65
2023-05-09T23:25:52.601Z,29.40
2023-05-09T23:28:20.324Z,28.65
2023-05-09T23:30:46.833Z,26.77
2023-05-09T23:33:13.371Z,27.30
2023-05-09T23:35:39.702Z,24.20
2023-05-09T23:38:06.309Z,28.73
2023-05-09T23:40:32.972Z,29.90
2023-05-09T23:42:59.427Z,39.63
2023-05-09T23:45:26.118Z,32.55
2023-05-09T23:47:52.805Z,32.70
2023-05-09T23:50:19.530Z,26.48
2023-05-09T23:52:49.153Z,25.15
2023-05-09T23:55:15.608Z,29.63
2023-05-09T23:57:42.221Z,29.00
